createdAt,value
2024-05-09T00:05:45.377Z,100.00
2024-05-09T00:11:48.289Z,100.00
2024-05-09T00:17:50.795Z,100.00
2024-05-09T00:23:53.563Z,100.00
2024-05-09T00:29:57.001Z,100.00
2024-05-09T00:36:00.370Z,100.00
2024-05-09T00:42:02.714Z,100.00
2024-05-09T00:48:09.535Z,100.00
2024-05-09T00:54:13.059Z,100.00
2024-05-09T01:00:26.068Z,100.00
2024-05-09T01:06:33.457Z,100.00
2024-05-09T01:12:35.879Z,100.00
2024-05-09T01:18:38.386Z,100.00
2024-05-09T01:24:40.757Z,100.00
2024-05-09T01:30:43.098Z,100.00
2024-05-09T01:36:45.434Z,100.00
2024-05-09T01:42:47.869Z,100.00
2024-05-09T01:48:51.570Z,100.00
2024-05-09T01:54:54.915Z,100.00
2024-05-09T02:00:57.280Z,100.00
2024-05-09T02:06:59.749Z,100.00
2024-05-09T02:13:02.140Z,100.00
2024-05-09T02:19:04.778Z,100.00
2024-05-09T02:25:07.324Z,100.00
2024-05-09T02:31:13.439Z,100.00
2024-05-09T02:37:15.735Z,100.00
2024-05-09T02:43:18.062Z,100.00
2024-05-09T02:49:20.520Z,100.00
2024-05-09T02:55:22.898Z,100.00
2024-05-09T03:01:25.907Z,100.00
2024-05-09T03:07:28.343Z,100.00
2024-05-09T03:13:30.747Z,100.00
2024-05-09T03:19:36.199Z,100.00
2024-05-09T03:25:39.925Z,100.00
2024-05-09T03:31:42.287Z,100.00
2024-05-09T03:37:45.809Z,100.00
2024-05-09T03:43:48.152Z,100.00
2024-05-09T03:49:59.924Z,100.00
2024-05-09T03:56:04.604Z,100.00
2024-05-09T04:02:08.117Z,100.00
2024-05-09T04:08:11.317Z,100.00
2024-05-09T04:14:14.045Z,100.00
2024-05-09T04:20:28.789Z,100.00
2024-05-09T04:26:38.739Z,100.00
2024-05-09T04:32:41.045Z,100.00
2024-05-09T04:38:43.485Z,100.00
2024-05-09T04:44:45.896Z,100.00
2024-05-09T04:50:48.336Z,100.00
2024-05-09T04:56:52.034Z,100.00
2024-05-09T05:03:00.497Z,100.00
2024-05-09T05:09:03.084Z,100.00
2024-05-09T05:15:06.732Z,100.00
2024-05-09T05:21:09.104Z,100.00
2024-05-09T05:27:11.792Z,100.00
2024-05-09T05:33:25.237Z,100.00
2024-05-09T05:39:30.359Z,100.00
2024-05-09T05:45:32.682Z,100.00
2024-05-09T05:51:36.122Z,100.00
2024-05-09T05:57:38.496Z,100.00
2024-05-09T06:03:41.434Z,100.00
2024-05-09T06:09:45.343Z,100.00
2024-05-09T06:15:49.132Z,100.00
2024-05-09T06:21:51.469Z,100.00
2024-05-09T06:27:53.883Z,100.00
2024-05-09T06:33:56.293Z,69.02
2024-05-09T06:39:58.655Z,55.77
2024-05-09T06:46:02.171Z,50.57
2024-05-09T06:52:09.683Z,49.56
2024-05-09T06:58:12.812Z,47.10
2024-05-09T07:04:15.536Z,48.53
2024-05-09T07:10:25.805Z,45.30
2024-05-09T07:16:34.869Z,47.49
2024-05-09T07:22:37.597Z,47.42
2024-05-09T07:28:39.892Z,53.77
2024-05-09T07:34:42.350Z,47.72
2024-05-09T07:40:46.101Z,42.65
2024-05-09T07:47:48.761Z,42.53
2024-05-09T07:53:37.107Z,48.10
2024-05-09T07:59:37.166Z,43.15
2024-05-09T08:05:41.504Z,39.98
2024-05-09T08:11:45.108Z,43.88
2024-05-09T08:17:47.539Z,40.09
2024-05-09T08:23:49.931Z,46.37
2024-05-09T08:29:53.017Z,50.79
2024-05-09T08:35:56.234Z,51.04
2024-05-09T08:41:58.542Z,51.07
2024-05-09T08:48:07.669Z,46.37
2024-05-09T08:54:11.500Z,45.20
2024-05-09T09:00:21.629Z,41.16
2024-05-09T09:06:33.594Z,41.53
2024-05-09T09:12:36.193Z,43.01
2024-05-09T09:18:38.894Z,41.88
2024-05-09T09:24:41.882Z,44.53
2024-05-09T09:30:45.555Z,46.26
2024-05-09T09:36:49.897Z,48.58
2024-05-09T09:42:57.806Z,49.93
2024-05-09T09:49:00.999Z,49.96
2024-05-09T09:55:06.074Z,49.05
2024-05-09T10:01:08.796Z,49.29
2024-05-09T10:07:13.892Z,50.59
2024-05-09T10:13:16.556Z,51.67
2024-05-09T10:19:27.008Z,50.75
2024-05-09T10:25:29.500Z,52.77
2024-05-09T10:31:32.485Z,52.15
2024-05-09T10:37:36.935Z,52.51
2024-05-09T10:43:43.527Z,52.38
2024-05-09T10:50:25.802Z,51.64
2024-05-09T10:56:35.600Z,51.02
2024-05-09T11:02:38.100Z,54.46
2024-05-09T11:08:42.688Z,56.79
2024-05-09T11:14:55.459Z,56.11
2024-05-09T11:20:58.442Z,56.86
2024-05-09T11:27:03.439Z,56.69
2024-05-09T11:33:06.188Z,57.91
2024-05-09T11:39:09.073Z,59.11
2024-05-09T11:45:11.481Z,59.66
2024-05-09T11:51:13.780Z,60.17
2024-05-09T11:57:16.530Z,58.77
2024-05-09T12:03:18.987Z,58.50
2024-05-09T12:09:22.346Z,56.99
2024-05-09T12:15:24.639Z,54.42
2024-05-09T12:21:27.954Z,52.72
2024-05-09T12:27:30.403Z,51.04
2024-05-09T12:33:32.948Z,47.74
2024-05-09T12:39:35.499Z,46.21
2024-05-09T12:45:40.504Z,44.06
2024-05-09T12:51:43.025Z,43.58
2024-05-09T12:57:45.455Z,42.80
2024-05-09T13:03:48.030Z,41.38
2024-05-09T13:09:51.798Z,42.92
2024-05-09T13:15:54.324Z,41.34
2024-05-09T13:21:57.485Z,42.28
2024-05-09T13:28:01.135Z,39.98
2024-05-09T13:34:10.927Z,38.43
2024-05-09T13:40:14.603Z,37.42
2024-05-09T13:46:18.195Z,36.39
2024-05-09T13:52:21.114Z,36.03
2024-05-09T13:58:24.543Z,37.45
2024-05-09T14:04:27.384Z,37.26
2024-05-09T14:10:31.898Z,38.12
2024-05-09T14:16:36.567Z,37.84
2024-05-09T14:22:41.239Z,36.47
2024-05-09T14:28:43.536Z,36.94
2024-05-09T14:34:46.037Z,41.90
2024-05-09T14:40:48.870Z,44.30
2024-05-09T14:46:51.361Z,44.37
2024-05-09T14:53:44.889Z,44.82
2024-05-09T14:59:50.104Z,45.98
2024-05-09T15:05:52.689Z,47.71
2024-05-09T15:11:56.557Z,48.18
2024-05-09T15:18:00.324Z,49.10
2024-05-09T15:24:02.891Z,49.40
2024-05-09T15:30:10.233Z,51.57
2024-05-09T15:36:13.625Z,51.20
2024-05-09T15:42:16.354Z,48.60
2024-05-09T15:48:19.110Z,48.38
2024-05-09T15:54:23.658Z,48.49
2024-05-09T16:00:36.505Z,49.58
2024-05-09T16:06:47.972Z,49.78
2024-05-09T16:12:52.357Z,48.23
2024-05-09T16:18:55.058Z,48.41
2024-05-09T16:24:57.421Z,51.12
2024-05-09T16:31:01.542Z,53.03
2024-05-09T16:37:06.648Z,54.61
2024-05-09T16:43:13.434Z,55.25
2024-05-09T16:49:16.065Z,56.47
2024-05-09T16:55:21.279Z,56.56
2024-05-09T17:01:24.086Z,56.62
2024-05-09T17:07:26.454Z,56.71
2024-05-09T17:13:29.352Z,56.49
2024-05-09T17:19:31.745Z,57.03
2024-05-09T17:25:35.761Z,57.08
2024-05-09T17:31:38.211Z,57.78
2024-05-09T17:37:40.588Z,58.02
2024-05-09T17:43:42.877Z,58.37
2024-05-09T17:49:45.019Z,58.42
2024-05-09T17:55:48.872Z,59.75
2024-05-09T18:01:51.608Z,62.91
2024-05-09T18:07:54.383Z,69.46
2024-05-09T18:13:58.579Z,79.89
2024-05-09T18:20:00.939Z,88.67
2024-05-09T18:26:06.538Z,97.99
2024-05-09T18:32:09.062Z,100.00
2024-05-09T18:38:11.448Z,100.00
2024-05-09T18:44:14.178Z,100.00
2024-05-09T18:50:24.645Z,100.00
2024-05-09T18:56:35.083Z,100.00
2024-05-09T19:02:38.680Z,100.00
2024-05-09T19:08:41.164Z,100.00
2024-05-09T19:14:44.838Z,100.00
2024-05-09T19:20:47.284Z,100.00
2024-05-09T19:26:49.686Z,100.00
2024-05-09T19:32:52.050Z,100.00
2024-05-09T19:38:54.587Z,100.00
2024-05-09T19:44:57.830Z,100.00
2024-05-09T19:51:00.821Z,100.00
2024-05-09T19:57:04.414Z,100.00
2024-05-09T20:03:06.892Z,100.00
2024-05-09T20:09:09.528Z,100.00
2024-05-09T20:15:24.969Z,100.00
2024-05-09T20:21:30.527Z,100.00
2024-05-09T20:27:37.869Z,100.00
2024-05-09T20:33:41.698Z,100.00
2024-05-09T20:39:44.139Z,100.00
2024-05-09T20:45:46.895Z,100.00
2024-05-09T20:51:49.264Z,100.00
2024-05-09T20:57:52.220Z,100.00
2024-05-09T21:03:54.709Z,100.00
2024-05-09T21:09:57.759Z,100.00
2024-05-09T21:16:00.190Z,100.00
2024-05-09T21:22:02.752Z,100.00
2024-05-09T21:28:06.160Z,100.00
2024-05-09T21:34:09.991Z,100.00
2024-05-09T21:40:17.010Z,100.00
2024-05-09T21:46:26.619Z,100.00
2024-05-09T21:52:29.326Z,100.00
2024-05-09T21:58:33.041Z,100.00
2024-05-09T22:04:35.492Z,100.00
2024-05-09T22:10:39.515Z,100.00
2024-05-09T22:16:42.701Z,100.00
2024-05-09T22:22:45.401Z,100.00
2024-05-09T22:28:49.939Z,100.00
2024-05-09T22:34:52.313Z,100.00
2024-05-09T22:40:55.246Z,100.00
2024-05-09T22:46:58.765Z,100.00
2024-05-09T22:53:01.387Z,100.00
2024-05-09T22:59:03.775Z,100.00
2024-05-09T23:05:06.477Z,100.00
2024-05-09T23:11:10.219Z,100.00
2024-05-09T23:17:13.802Z,100.00
2024-05-09T23:23:16.159Z,100.00
2024-05-09T23:29:19.683Z,100.00
2024-05-09T23:35:22.071Z,100.00
2024-05-09T23:41:24.695Z,100.00
2024-05-09T23:47:27.038Z,100.00
2024-05-09T23:53:29.673Z,100.00
2024-05-09T23:59:34.896Z,100.00
